Time;durP1;ratioP1;P1;durP2;ratioP2;P2;SDS_P1;SDS_P2;PMS_P1;PMS_P2;Temp;Humidity;BMP_temperature;BMP_pressure;BME280_temperature;BME280_humidity;BME280_pressure;Samples;Min_cycle;Max_cycle;Signal;HPM_P1;HPM_P2
2022/12/02 00:01:13;;;;;;;50.70;23.02;;;;;;;4.15;100.00;102538.47;5053271;28;20025;-72
2022/12/02 00:03:39;;;;;;;52.05;24.58;;;;;;;4.15;100.00;102538.47;5053363;28;20234;-72
2022/12/02 00:06:27;;;;;;;56.22;28.65;;;;;;;4.13;100.00;102533.28;5053140;28;20058;-72
2022/12/02 00:09:21;;;;;;;52.90;25.98;;;;;;;4.11;100.00;102529.06;5052918;28;20969;-72
2022/12/02 00:11:47;;;;;;;50.45;23.35;;;;;;;4.07;100.00;102530.28;5050952;28;20056;-72
2022/12/02 00:14:21;;;;;;;50.70;27.65;;;;;;;4.02;100.00;102521.84;5053074;28;20029;-72
2022/12/02 00:16:47;;;;;;;56.30;24.75;;;;;;;4.00;100.00;102524.59;5052961;28;20476;-72
2022/12/02 00:19:13;;;;;;;55.88;24.23;;;;;;;3.94;100.00;102528.53;5052807;28;20025;-72
2022/12/02 00:21:38;;;;;;;53.03;25.40;;;;;;;3.95;100.00;102526.72;5062740;28;20097;-72
2022/12/02 00:24:04;;;;;;;56.35;25.70;;;;;;;3.92;100.00;102516.38;5071999;28;20075;-72
2022/12/02 00:26:29;;;;;;;53.80;26.13;;;;;;;3.92;100.00;102516.38;5072026;28;20035;-72
2022/12/02 00:28:54;;;;;;;50.72;25.15;;;;;;;3.83;100.00;102510.00;5070617;28;20036;-72
2022/12/02 00:31:20;;;;;;;56.83;29.13;;;;;;;3.88;100.00;102502.59;5071906;28;20028;-72
2022/12/02 00:33:45;;;;;;;53.17;23.15;;;;;;;3.89;100.00;102506.06;5070660;28;20086;-72
2022/12/02 00:36:10;;;;;;;53.58;23.02;;;;;;;3.87;100.00;102506.16;5071818;28;20024;-72
2022/12/02 00:38:36;;;;;;;50.53;23.48;;;;;;;3.87;100.00;102497.41;5071827;28;20021;-72
2022/12/02 00:41:01;;;;;;;49.35;22.42;;;;;;;3.85;100.00;102501.94;5071614;28;20037;-72
2022/12/02 00:48:54;;;;;;;49.67;24.30;;;;;;;3.70;100.00;102498.66;5071692;28;20035;-72
2022/12/02 00:51:20;;;;;;;44.55;21.77;;;;;;;3.63;100.00;102484.19;5071234;28;20032;-72
2022/12/02 00:53:45;;;;;;;57.75;27.13;;;;;;;3.60;100.00;102482.63;5071592;28;20033;-72
2022/12/02 00:56:10;;;;;;;46.28;21.70;;;;;;;3.71;100.00;102500.31;5061376;28;20063;-72
2022/12/02 00:58:36;;;;;;;47.20;21.30;;;;;;;3.70;100.00;102498.66;5051096;28;20064;-72
2022/12/02 01:01:01;;;;;;;48.80;21.65;;;;;;;3.64;100.00;102486.75;5052270;28;20040;-72
2022/12/02 01:03:26;;;;;;;49.97;23.83;;;;;;;3.67;100.00;102497.06;5052137;28;20029;-72
2022/12/02 01:05:52;;;;;;;49.78;22.63;;;;;;;3.64;100.00;102494.66;5052029;28;20154;-72
2022/12/02 01:08:17;;;;;;;56.25;21.75;;;;;;;3.65;100.00;102496.31;5050756;28;20033;-72
2022/12/02 01:10:42;;;;;;;45.22;22.95;;;;;;;3.62;100.00;102493.09;5050518;28;20139;-72
2022/12/02 01:13:08;;;;;;;46.95;21.25;;;;;;;3.60;100.00;102477.34;5051990;28;20977;-72
2022/12/02 01:15:33;;;;;;;56.92;26.02;;;;;;;3.59;100.00;102486.22;5069755;28;20028;-72
2022/12/02 01:17:59;;;;;;;44.00;22.60;;;;;;;3.58;100.00;102475.78;5071039;28;20105;-72
2022/12/02 01:20:25;;;;;;;49.33;22.48;;;;;;;3.61;100.00;102486.94;5071130;28;20065;-72
2022/12/02 01:22:50;;;;;;;48.10;21.92;;;;;;;3.57;100.00;102477.56;5070730;28;20040;-72
2022/12/02 01:25:15;;;;;;;46.60;21.75;;;;;;;3.62;100.00;102488.63;5069552;28;20028;-72
2022/12/02 01:27:41;;;;;;;50.10;22.13;;;;;;;3.51;100.00;102468.31;5070768;28;20028;-72
2022/12/02 01:30:06;;;;;;;46.92;22.75;;;;;;;3.56;100.00;102480.31;5070767;28;20029;-72
2022/12/02 01:32:32;;;;;;;52.67;24.33;;;;;;;3.57;100.00;102493.41;5070863;28;20107;-72
2022/12/02 01:34:58;;;;;;;49.97;23.42;;;;;;;3.48;100.00;102484.38;5070587;28;20060;-72
2022/12/02 01:37:23;;;;;;;46.20;23.27;;;;;;;3.55;100.00;102489.19;5070651;28;20033;-72
2022/12/02 01:39:48;;;;;;;47.08;24.58;;;;;;;3.53;100.00;102499.84;5070541;28;20421;-72
2022/12/02 01:42:14;;;;;;;55.17;25.88;;;;;;;3.48;100.00;102494.91;5070676;28;20048;-72
2022/12/02 01:44:39;;;;;;;54.08;25.55;;;;;;;3.44;100.00;102484.69;5070476;28;20047;-72
2022/12/02 01:47:05;;;;;;;46.78;23.90;;;;;;;3.37;100.00;102484.25;5070630;28;20112;-72
2022/12/02 01:49:30;;;;;;;55.72;26.45;;;;;;;3.37;100.00;102493.97;5069000;28;20043;-72
2022/12/02 01:51:56;;;;;;;55.22;26.45;;;;;;;3.38;100.00;102496.53;5070343;28;20071;-72
2022/12/02 01:54:21;;;;;;;50.47;23.90;;;;;;;3.34;100.00;102489.75;5070179;28;20028;-72
2022/12/02 01:56:47;;;;;;;55.15;25.30;;;;;;;3.35;100.00;102490.59;5070462;28;20044;-72
2022/12/02 01:59:14;;;;;;;51.20;26.80;;;;;;;3.31;100.00;102486.50;5070205;28;20028;-72
2022/12/02 02:01:40;;;;;;;56.35;25.60;;;;;;;3.32;100.00;102496.09;5070089;28;20068;-72
2022/12/02 02:04:06;;;;;;;47.65;23.48;;;;;;;3.29;100.00;102490.09;5068859;28;20059;-72
2022/12/02 02:06:41;;;;;;;46.40;23.13;;;;;;;3.27;100.00;102499.06;5070127;28;20128;-72
2022/12/02 02:09:07;;;;;;;41.53;19.95;;;;;;;3.17;100.00;102483.06;5069647;28;20040;-72
2022/12/02 02:11:34;;;;;;;47.28;21.50;;;;;;;3.16;100.00;102491.06;5069659;28;20060;-72
2022/12/02 02:14:00;;;;;;;42.60;20.52;;;;;;;3.14;100.00;102496.44;5069844;28;20128;-72
2022/12/02 02:16:25;;;;;;;42.25;20.10;;;;;;;3.04;100.00;102482.22;5069863;28;20549;-72
2022/12/02 02:18:50;;;;;;;46.17;22.27;;;;;;;3.04;100.00;102498.88;5069562;28;20043;-72
2022/12/02 02:21:23;;;;;;;45.30;22.50;;;;;;;3.02;100.00;102497.31;5069184;28;20039;-72
2022/12/02 02:23:48;;;;;;;47.95;22.80;;;;;;;2.99;100.00;102498.34;5069613;28;20471;-72
2022/12/02 02:26:14;;;;;;;41.97;23.00;;;;;;;2.97;100.00;102494.97;5069707;28;20119;-72
2022/12/02 02:28:40;;;;;;;48.72;24.45;;;;;;;2.92;100.00;102502.34;5069601;28;20478;-72
2022/12/02 02:31:05;;;;;;;41.90;21.38;;;;;;;2.91;100.00;102497.19;5069423;28;20032;-72
2022/12/02 02:33:33;;;;;;;48.50;20.90;;;;;;;2.85;100.00;102477.38;5069566;28;20039;-72
2022/12/02 02:35:59;;;;;;;41.30;19.48;;;;;;;2.92;100.00;102481.28;5069221;28;20028;-72
2022/12/02 02:38:27;;;;;;;47.20;21.08;;;;;;;2.86;100.00;102476.44;5069369;28;20077;-72
2022/12/02 02:40:54;;;;;;;46.85;20.80;;;;;;;2.85;100.00;102475.56;5068008;28;20149;-72
2022/12/02 02:43:22;;;;;;;42.33;19.33;;;;;;;2.83;100.00;102479.28;5069367;28;20173;-72
2022/12/02 02:45:49;;;;;;;41.45;21.38;;;;;;;2.83;100.00;102477.50;5069498;28;20110;-72
2022/12/02 02:48:16;;;;;;;46.58;21.33;;;;;;;2.82;100.00;102473.16;5049873;28;20437;-72
2022/12/02 02:50:43;;;;;;;42.55;19.33;;;;;;;2.80;100.00;102479.47;5067879;28;20025;-72
2022/12/02 02:53:09;;;;;;;47.83;22.10;;;;;;;2.79;100.00;102478.66;5069168;28;20538;-72
2022/12/02 02:55:35;;;;;;;43.92;20.60;;;;;;;2.73;100.00;102480.88;5067336;28;20062;-72
2022/12/02 02:58:17;;;;;;;45.45;19.50;;;;;;;2.73;100.00;102470.34;5056773;28;20048;-72
2022/12/02 03:00:47;;;;;;;42.88;20.00;;;;;;;2.72;100.00;102476.53;5069527;28;20115;-72
2022/12/02 03:03:17;;;;;;;42.63;19.58;;;;;;;2.69;100.00;102460.94;5069364;28;20066;-72
2022/12/02 03:05:44;;;;;;;53.30;22.73;;;;;;;2.67;100.00;102453.13;5069216;28;20028;-72
2022/12/02 03:08:09;;;;;;;44.58;23.15;;;;;;;2.67;100.00;102457.56;5049857;28;20029;-72
2022/12/02 03:10:35;;;;;;;43.33;23.05;;;;;;;2.68;100.00;102449.56;5049727;28;20049;-72
2022/12/02 03:13:01;;;;;;;48.88;25.23;;;;;;;2.71;100.00;102456.41;5049975;28;20486;-73
2022/12/02 03:15:28;;;;;;;46.75;20.15;;;;;;;2.71;100.00;102451.16;5049882;28;20064;-72
2022/12/02 03:17:54;;;;;;;48.55;23.48;;;;;;;2.66;100.00;102451.47;5049504;28;20543;-72
2022/12/02 03:20:21;;;;;;;46.85;20.70;;;;;;;2.71;100.00;102461.69;5049868;28;20065;-72
2022/12/02 03:22:46;;;;;;;47.88;19.10;;;;;;;2.71;100.00;102461.69;5049931;28;20036;-72
2022/12/02 03:25:12;;;;;;;43.05;19.33;;;;;;;2.70;100.00;102457.34;5049690;28;20033;-72
2022/12/02 03:27:38;;;;;;;49.97;22.40;;;;;;;2.69;100.00;102450.41;5048628;28;20086;-72
2022/12/02 03:30:04;;;;;;;51.33;22.30;;;;;;;2.67;100.00;102439.97;5048334;28;20150;-72
2022/12/02 03:32:31;;;;;;;45.55;21.30;;;;;;;2.64;100.00;102446.28;5052220;28;20029;-72
2022/12/02 03:34:57;;;;;;;45.20;20.10;;;;;;;2.69;100.00;102450.41;5053824;28;20033;-72
2022/12/02 03:37:22;;;;;;;46.80;21.40;;;;;;;2.70;100.00;102442.41;5053916;28;20021;-72
2022/12/02 03:39:49;;;;;;;47.50;20.52;;;;;;;2.69;100.00;102445.13;5053809;28;20459;-72
2022/12/02 03:42:15;;;;;;;49.88;21.55;;;;;;;2.66;100.00;102437.44;5053404;28;20032;-72
2022/12/02 03:44:41;;;;;;;44.75;20.45;;;;;;;2.68;100.00;102440.84;5053806;28;20387;-72
2022/12/02 03:47:07;;;;;;;41.75;19.75;;;;;;;2.67;100.00;102436.50;5053690;28;20361;-72
2022/12/02 03:49:34;;;;;;;43.65;20.75;;;;;;;2.64;100.00;102421.75;5053441;28;20029;-72
2022/12/02 03:51:59;;;;;;;44.80;18.20;;;;;;;2.61;100.00;102430.69;5052091;28;20043;-72
2022/12/02 03:54:25;;;;;;;39.78;19.63;;;;;;;2.62;100.00;102428.94;5053449;28;20021;-72
2022/12/02 03:56:50;;;;;;;49.45;21.23;;;;;;;2.64;100.00;102430.47;5035653;28;20044;-72
2022/12/02 03:59:22;;;;;;;36.20;17.38;;;;;;;2.62;100.00;102432.41;5053526;28;20036;-72
2022/12/02 04:01:48;;;;;;;37.95;19.50;;;;;;;2.62;100.00;102432.41;5053428;28;20076;-72
2022/12/02 04:04:13;;;;;;;40.70;17.83;;;;;;;2.59;100.00;102427.34;5053479;28;20060;-72
2022/12/02 04:06:39;;;;;;;41.95;18.85;;;;;;;2.56;100.00;102416.16;5053337;28;20390;-72
2022/12/02 04:09:05;;;;;;;42.22;20.23;;;;;;;2.56;100.00;102409.09;5068891;28;20616;-72
2022/12/02 04:11:30;;;;;;;47.05;20.85;;;;;;;2.57;100.00;102415.22;5072051;28;20048;-72
2022/12/02 04:13:55;;;;;;;39.20;18.02;;;;;;;2.55;100.00;102409.22;5070980;28;20055;-72
2022/12/02 04:16:21;;;;;;;42.50;21.13;;;;;;;2.52;100.00;102412.91;5072264;28;20501;-72
2022/12/02 04:18:47;;;;;;;40.28;16.65;;;;;;;2.51;100.00;102411.19;5072148;28;20387;-72
2022/12/02 04:21:12;;;;;;;34.63;16.58;;;;;;;2.55;100.00;102414.50;5070858;28;20032;-72
2022/12/02 04:23:38;;;;;;;39.47;14.27;;;;;;;2.55;100.00;102425.88;5070860;28;20098;-72
2022/12/02 04:26:03;;;;;;;31.48;13.73;;;;;;;2.54;100.00;102424.19;5072044;28;20439;-72
2022/12/02 04:28:29;;;;;;;29.63;15.27;;;;;;;2.54;100.00;102424.19;5070560;28;20032;-72
2022/12/02 04:30:54;;;;;;;33.15;16.20;;;;;;;2.48;100.00;102421.13;5072088;28;20107;-72
2022/12/02 04:33:20;;;;;;;32.10;15.35;;;;;;;2.52;100.00;102420.81;5071838;28;20033;-72
2022/12/02 04:35:45;;;;;;;32.92;13.35;;;;;;;2.52;100.00;102423.44;5071896;28;20032;-72
2022/12/02 04:38:10;;;;;;;36.33;14.90;;;;;;;2.54;100.00;102418.91;5067044;28;20539;-73
2022/12/02 04:40:36;;;;;;;39.00;17.33;;;;;;;2.54;100.00;102413.66;5052605;28;20124;-72
2022/12/02 04:43:01;;;;;;;37.85;17.77;;;;;;;2.52;100.00;102410.28;5052247;28;20029;-72
2022/12/02 04:45:27;;;;;;;39.85;16.10;;;;;;;2.45;100.00;102392.38;5052585;28;20064;-72
2022/12/02 04:47:52;;;;;;;38.97;18.35;;;;;;;2.48;100.00;102398.25;5052390;28;20060;-72
2022/12/02 04:50:17;;;;;;;37.17;16.38;;;;;;;2.52;100.00;102398.91;5051233;28;20060;-72
2022/12/02 04:52:43;;;;;;;31.67;15.05;;;;;;;2.50;100.00;102392.91;5052428;28;20036;-72
2022/12/02 04:55:08;;;;;;;32.00;12.80;;;;;;;2.46;100.00;102386.97;5052532;28;20040;-72
2022/12/02 04:57:33;;;;;;;29.77;13.70;;;;;;;2.48;100.00;102389.53;5052340;28;20037;-72
2022/12/02 04:59:59;;;;;;;33.95;16.52;;;;;;;2.51;100.00;102387.50;5052331;28;20094;-72
2022/12/02 05:02:24;;;;;;;34.95;15.55;;;;;;;2.47;100.00;102380.78;5051854;28;20033;-72
2022/12/02 05:04:49;;;;;;;32.70;14.70;;;;;;;2.47;100.00;102380.78;5052277;28;20124;-72
2022/12/02 05:07:16;;;;;;;43.20;14.82;;;;;;;2.52;100.00;102381.31;5050684;28;20036;-72
2022/12/02 05:09:41;;;;;;;37.85;16.08;;;;;;;2.49;100.00;102376.25;5050301;28;20048;-72
2022/12/02 05:12:07;;;;;;;39.38;20.17;;;;;;;2.47;100.00;102375.50;5051865;28;20049;-72
2022/12/02 05:14:32;;;;;;;37.42;15.93;;;;;;;2.45;100.00;102369.50;5051883;28;20053;-72
2022/12/02 05:16:57;;;;;;;36.80;17.20;;;;;;;2.37;100.00;102358.66;5052025;28;20040;-72
2022/12/02 05:19:23;;;;;;;39.95;16.45;;;;;;;2.49;100.00;102376.25;5050354;28;20495;-72
2022/12/02 05:21:48;;;;;;;31.30;16.13;;;;;;;2.49;100.00;102376.25;5062242;28;20444;-72
2022/12/02 05:24:13;;;;;;;34.03;13.35;;;;;;;2.45;100.00;102377.41;5070719;28;20391;-72
2022/12/02 05:26:39;;;;;;;38.33;15.02;;;;;;;2.48;100.00;102376.34;5071009;28;20467;-72
2022/12/02 05:29:05;;;;;;;33.22;13.80;;;;;;;2.45;100.00;102369.50;5070720;28;20123;-72
2022/12/02 05:31:30;;;;;;;35.25;13.90;;;;;;;2.45;100.00;102366.03;5070868;28;20036;-72
2022/12/02 05:33:55;;;;;;;30.88;14.55;;;;;;;2.49;100.00;102367.50;5069493;28;20044;-72
2022/12/02 05:36:21;;;;;;;36.38;14.48;;;;;;;2.45;100.00;102360.78;5069418;28;20098;-72
2022/12/02 05:38:46;;;;;;;30.20;11.68;;;;;;;2.50;100.00;102366.56;5052427;28;20040;-72
2022/12/02 05:41:11;;;;;;;35.40;13.98;;;;;;;2.45;100.00;102363.41;5069245;28;20120;-72
2022/12/02 05:43:40;;;;;;;35.78;15.60;;;;;;;2.49;100.00;102371.00;5070441;28;20041;-72
2022/12/02 05:46:17;;;;;;;31.33;14.88;;;;;;;2.49;100.00;102370.13;5070520;28;20031;-72
2022/12/02 05:48:43;;;;;;;36.78;15.00;;;;;;;2.50;100.00;102377.09;5070256;28;20032;-72
2022/12/02 05:51:14;;;;;;;34.25;14.18;;;;;;;2.47;100.00;102375.50;5070432;28;20087;-72
2022/12/02 05:53:42;;;;;;;34.38;14.45;;;;;;;2.41;100.00;102360.13;5053430;28;20039;-72
2022/12/02 05:56:22;;;;;;;36.28;16.10;;;;;;;2.47;100.00;102380.78;5049137;28;20383;-72
2022/12/02 05:58:48;;;;;;;36.40;14.32;;;;;;;2.41;100.00;102374.16;5051174;28;20039;-72
2022/12/02 06:01:19;;;;;;;37.13;14.63;;;;;;;2.45;100.00;102374.78;5050994;28;20028;-72
2022/12/02 06:03:45;;;;;;;;;;;;;;;2.49;100.00;102378.88;5051493;28;20121;-72
2022/12/02 06:06:11;;;;;;;37.47;14.02;;;;;;;2.45;100.00;102372.13;5050965;28;20395;-72
2022/12/02 06:08:36;;;;;;;35.92;14.40;;;;;;;2.36;100.00;102354.34;5050722;28;20025;-72
2022/12/02 06:11:12;;;;;;;32.15;13.70;;;;;;;2.41;100.00;102360.13;5050691;28;20098;-72
2022/12/02 06:13:38;;;;;;;37.45;15.73;;;;;;;2.38;100.00;102360.34;5050961;28;20054;-72
2022/12/02 06:16:14;;;;;;;31.23;13.68;;;;;;;2.38;100.00;102357.72;5050834;28;20032;-72
2022/12/02 06:18:40;;;;;;;31.67;11.90;;;;;;;2.37;100.00;102361.28;5049770;28;20494;-72
2022/12/02 06:21:12;;;;;;;34.70;13.90;;;;;;;2.38;100.00;102376.13;5050797;28;20033;-72
2022/12/02 06:23:43;;;;;;;32.55;13.77;;;;;;;2.40;100.00;102371.63;5050572;28;20086;-72
2022/12/02 06:26:13;;;;;;;32.03;13.40;;;;;;;2.38;100.00;102362.97;5051528;28;20024;-72
2022/12/02 06:28:41;;;;;;;28.85;12.63;;;;;;;2.38;100.00;102369.09;5069614;28;20023;-72
2022/12/02 06:31:15;;;;;;;33.33;12.65;;;;;;;2.42;100.00;102372.34;5069554;28;20028;-72
2022/12/02 06:33:42;;;;;;;29.90;12.95;;;;;;;2.37;100.00;102366.56;5069597;28;20092;-72
2022/12/02 06:36:14;;;;;;;31.67;14.65;;;;;;;2.41;100.00;102357.50;5068064;28;20056;-72
2022/12/02 06:38:45;;;;;;;;;;;;;;;2.40;100.00;102361.09;5069654;28;20023;-72
2022/12/02 06:41:28;;;;;;;32.50;14.18;;;;;;;2.33;100.00;102379.09;5069443;28;19913;-72
2022/12/02 06:46:44;;;;;;;33.40;13.48;;;;;;;2.34;100.00;102358.88;5069773;28;20048;-72
2022/12/02 06:49:18;;;;;;;33.92;13.90;;;;;;;2.34;100.00;102361.50;5069162;28;20037;-72
2022/12/02 06:51:44;;;;;;;33.42;12.52;;;;;;;2.30;100.00;102354.75;5067761;28;20108;-72
2022/12/02 06:54:20;;;;;;;33.35;14.73;;;;;;;2.35;100.00;102357.91;5069295;28;20127;-73
2022/12/02 06:56:46;;;;;;;26.00;12.38;;;;;;;2.32;100.00;102358.13;5069199;28;20032;-72
2022/12/02 06:59:15;;;;;;;28.75;11.27;;;;;;;2.33;100.00;102363.31;5069227;28;20335;-72
2022/12/02 07:01:44;;;;;;;30.58;12.23;;;;;;;2.32;100.00;102364.25;5060868;28;20534;-72
2022/12/02 07:04:09;;;;;;;31.42;14.63;;;;;;;2.33;100.00;102365.06;5050098;28;20098;-71
2022/12/02 07:06:41;;;;;;;29.58;14.25;;;;;;;2.29;100.00;102355.72;5050066;28;20033;-72
2022/12/02 07:09:19;;;;;;;30.70;10.98;;;;;;;2.33;100.00;102365.06;5049794;28;20129;-72
2022/12/02 07:11:54;;;;;;;31.02;13.00;;;;;;;2.34;100.00;102374.69;5049649;28;20598;-72
2022/12/02 07:14:36;;;;;;;26.05;10.60;;;;;;;2.39;100.00;102376.03;5048693;28;21065;-72
2022/12/02 07:17:12;;;;;;;34.03;12.77;;;;;;;2.37;100.00;102372.66;5048606;28;20037;-72
2022/12/02 07:19:41;;;;;;;34.25;13.02;;;;;;;2.36;100.00;102371.00;5053109;28;20502;-72
2022/12/02 07:22:28;;;;;;;31.23;11.90;;;;;;;2.32;100.00;102371.31;5069075;28;20112;-72
2022/12/02 07:25:18;;;;;;;32.40;12.30;;;;;;;2.33;100.00;102363.31;5068880;28;20021;-72
2022/12/02 07:27:47;;;;;;;25.73;13.32;;;;;;;2.39;100.00;102375.22;5068931;28;20036;-72
2022/12/02 07:30:28;;;;;;;27.98;13.55;;;;;;;2.40;100.00;102366.34;5068898;28;20108;-72
2022/12/02 07:32:53;;;;;;;32.80;12.70;;;;;;;2.40;100.00;102371.63;5069088;28;20107;-72
2022/12/02 07:35:19;;;;;;;29.67;12.63;;;;;;;2.36;100.00;102365.72;5067500;28;20146;-72
2022/12/02 07:37:46;;;;;;;28.13;11.13;;;;;;;2.49;100.00;102372.75;5068836;28;20864;-72
2022/12/02 07:40:12;;;;;;;30.08;13.40;;;;;;;2.40;100.00;102371.63;5068853;28;20487;-72
2022/12/02 07:42:38;;;;;;;29.15;12.93;;;;;;;2.35;100.00;102364.03;5068468;28;20036;-72
2022/12/02 07:45:04;;;;;;;29.88;13.32;;;;;;;2.36;100.00;102363.09;5068619;28;20021;-72
2022/12/02 07:47:31;;;;;;;30.50;13.52;;;;;;;2.38;100.00;102363.84;5048988;28;20036;-72
2022/12/02 07:49:56;;;;;;;33.58;14.93;;;;;;;2.36;100.00;102363.09;5049493;28;20119;-72
2022/12/02 07:52:23;;;;;;;30.02;13.35;;;;;;;2.36;100.00;102363.09;5049492;28;20112;-72
2022/12/02 07:54:48;;;;;;;36.85;15.13;;;;;;;2.37;100.00;102380.56;5049759;28;20033;-72
2022/12/02 07:57:14;;;;;;;30.88;12.32;;;;;;;2.36;100.00;102367.53;5049536;28;20072;-72
2022/12/02 07:59:39;;;;;;;31.95;14.82;;;;;;;2.35;100.00;102371.09;5049610;28;20431;-72
2022/12/02 08:02:04;;;;;;;33.40;13.68;;;;;;;2.40;100.00;102379.50;5048045;28;20459;-72
2022/12/02 08:04:30;;;;;;;32.58;13.85;;;;;;;2.41;100.00;102376.78;5048170;28;20033;-72
2022/12/02 08:06:55;;;;;;;30.90;12.98;;;;;;;2.32;100.00;102363.41;5049282;28;20036;-72
2022/12/02 08:09:20;;;;;;;31.58;12.82;;;;;;;2.31;100.00;102375.72;5049226;28;20082;-72
2022/12/02 08:11:46;;;;;;;34.33;15.00;;;;;;;2.33;100.00;102384.38;5047937;28;20049;-72
2022/12/02 08:14:11;;;;;;;33.38;15.27;;;;;;;2.30;100.00;102374.03;5049052;28;20036;-71
2022/12/02 08:16:36;;;;;;;34.58;14.80;;;;;;;2.27;100.00;102376.88;5049319;28;20029;-72
2022/12/02 08:19:02;;;;;;;32.42;17.17;;;;;;;2.28;100.00;102373.31;5051824;28;20029;-71
2022/12/02 08:21:29;;;;;;;36.05;16.60;;;;;;;2.31;100.00;102378.38;5053067;28;20482;-71
2022/12/02 08:23:54;;;;;;;38.42;15.07;;;;;;;2.18;100.00;102380.97;5053010;28;20032;-71
2022/12/02 08:26:20;;;;;;;32.67;16.23;;;;;;;2.10;100.00;102371.94;5052993;28;20360;-71
2022/12/02 08:28:45;;;;;;;33.00;16.42;;;;;;;2.14;100.00;102378.66;5052867;28;20351;-70
2022/12/02 08:31:10;;;;;;;30.45;14.65;;;;;;;2.11;100.00;102376.22;5051680;28;20033;-71
2022/12/02 08:33:36;;;;;;;32.72;13.88;;;;;;;2.15;100.00;102372.47;5062235;28;20028;-70
2022/12/02 08:36:02;;;;;;;37.00;15.55;;;;;;;2.09;100.00;102378.13;5071899;28;20063;-71
2022/12/02 08:38:28;;;;;;;30.65;14.43;;;;;;;2.06;100.00;102373.06;5071617;28;20035;-72
2022/12/02 08:40:54;;;;;;;26.15;10.10;;;;;;;2.04;100.00;102377.59;5071798;28;20349;-71
2022/12/02 08:43:19;;;;;;;34.30;15.70;;;;;;;1.96;100.00;102370.22;5071769;28;20035;-71
2022/12/02 08:45:44;;;;;;;34.53;14.43;;;;;;;1.87;100.00;102368.22;5071821;28;20112;-71
2022/12/02 08:48:10;;;;;;;33.75;12.93;;;;;;;1.89;100.00;102371.59;5071683;28;20115;-71
2022/12/02 08:50:36;;;;;;;32.72;12.70;;;;;;;1.85;100.00;102378.81;5071492;28;20032;-71
2022/12/02 08:53:01;;;;;;;27.75;11.55;;;;;;;1.81;100.00;102379.97;5055875;28;20033;-71
2022/12/02 08:55:27;;;;;;;41.65;14.13;;;;;;;1.78;100.00;102377.53;5054867;28;20028;-71
2022/12/02 08:57:52;;;;;;;29.48;13.07;;;;;;;1.76;100.00;102371.56;5057300;28;20047;-70
2022/12/02 09:00:18;;;;;;;31.63;13.55;;;;;;;1.71;100.00;102376.28;5056596;28;20167;-73
2022/12/02 09:02:43;;;;;;;33.97;14.30;;;;;;;1.70;100.00;102366.69;5056106;28;20032;-73
2022/12/02 09:05:09;;;;;;;30.13;13.77;;;;;;;1.72;100.00;102376.16;5038494;28;20059;-72
2022/12/02 09:07:34;;;;;;;30.88;13.70;;;;;;;1.67;100.00;102372.16;5055601;28;20033;-71
2022/12/02 09:10:00;;;;;;;33.10;14.95;;;;;;;1.72;100.00;102376.16;5055622;28;21449;-69
2022/12/02 09:12:26;;;;;;;29.33;11.25;;;;;;;1.73;100.00;102385.75;5055299;28;20060;-73
2022/12/02 09:14:52;;;;;;;28.08;12.75;;;;;;;1.72;100.00;102383.22;5056254;28;20112;-74
2022/12/02 09:17:17;;;;;;;32.30;15.32;;;;;;;1.74;100.00;102384.78;5054533;28;20033;-74
2022/12/02 09:19:43;;;;;;;21.75;10.48;;;;;;;1.77;100.00;102373.22;5055653;28;20024;-71
2022/12/02 09:22:08;;;;;;;31.63;14.27;;;;;;;1.66;100.00;102357.31;5054175;28;20032;-71
2022/12/02 09:24:33;;;;;;;29.65;12.05;;;;;;;1.77;100.00;102370.59;5053951;28;20031;-71
2022/12/02 09:26:59;;;;;;;33.75;13.07;;;;;;;1.74;100.00;102365.53;5055986;28;20044;-71
2022/12/02 09:29:24;;;;;;;27.70;12.18;;;;;;;1.80;100.00;102380.06;5052178;28;20040;-71
2022/12/02 09:31:49;;;;;;;32.65;12.73;;;;;;;1.80;100.00;102361.66;5055306;28;20177;-72
2022/12/02 09:34:15;;;;;;;30.48;11.73;;;;;;;1.79;100.00;102357.34;5056136;28;20067;-72
2022/12/02 09:36:40;;;;;;;32.05;13.82;;;;;;;1.82;100.00;102352.72;5054999;28;20028;-72
2022/12/02 09:39:06;;;;;;;31.70;13.18;;;;;;;1.83;100.00;102361.44;5058631;28;20115;-71
2022/12/02 09:41:31;;;;;;;28.98;11.82;;;;;;;1.84;100.00;102352.63;5058174;28;20032;-71
2022/12/02 09:43:56;;;;;;;32.80;12.90;;;;;;;1.84;100.00;102356.09;5051407;28;20040;-70
2022/12/02 09:46:23;;;;;;;32.08;12.93;;;;;;;1.85;100.00;102351.69;5050051;28;20049;-71
2022/12/02 09:48:49;;;;;;;28.88;10.50;;;;;;;1.88;100.00;102364.63;5055495;28;20471;-71
2022/12/02 09:51:14;;;;;;;32.03;15.07;;;;;;;1.89;100.00;102354.00;5070447;28;20036;-71
2022/12/02 09:53:41;;;;;;;28.42;12.20;;;;;;;1.86;100.00;102350.72;5070399;28;20044;-71
2022/12/02 09:56:14;;;;;;;29.10;11.18;;;;;;;1.91;100.00;102361.78;5070392;28;20144;-71
2022/12/02 09:58:40;;;;;;;33.70;14.02;;;;;;;1.84;100.00;102360.53;5068814;28;20025;-70
2022/12/02 10:01:10;;;;;;;29.63;13.20;;;;;;;1.91;100.00;102364.41;5070274;28;20487;-70
2022/12/02 10:03:35;;;;;;;31.58;14.38;;;;;;;1.86;100.00;102353.34;5070257;28;20031;-71
2022/12/02 10:06:06;;;;;;;30.13;14.60;;;;;;;1.91;100.00;102354.75;5068806;28;20483;-70
2022/12/02 10:08:31;;;;;;;35.63;14.02;;;;;;;1.92;100.00;102350.31;5063108;28;20020;-70
2022/12/02 10:10:58;;;;;;;32.67;14.52;;;;;;;1.90;100.00;102347.78;5053825;28;20052;-72
2022/12/02 10:13:24;;;;;;;38.15;17.40;;;;;;;1.95;100.00;102345.69;5066582;28;20029;-71
2022/12/02 10:15:50;;;;;;;35.17;14.98;;;;;;;1.94;100.00;102336.13;5069828;28;20040;-71
2022/12/02 10:18:20;;;;;;;27.08;12.68;;;;;;;2.04;100.00;102349.47;5069993;28;20023;-71
2022/12/02 10:20:46;;;;;;;40.38;16.80;;;;;;;2.04;100.00;102336.31;5069840;28;20121;-70
2022/12/02 10:23:23;;;;;;;37.88;14.52;;;;;;;2.06;100.00;102336.22;5070319;28;20032;-71
2022/12/02 10:26:10;;;;;;;35.15;13.93;;;;;;;2.11;100.00;102328.88;5069954;28;20028;-71
2022/12/02 10:28:37;;;;;;;45.80;16.33;;;;;;;2.09;100.00;102338.66;5069776;28;20031;-71
2022/12/02 10:31:21;;;;;;;37.95;16.55;;;;;;;2.14;100.00;102326.84;5069811;28;20552;-71
2022/12/02 10:33:56;;;;;;;43.95;15.73;;;;;;;2.27;100.00;102334.75;5069811;28;20086;-71
2022/12/02 10:36:39;;;;;;;38.00;15.68;;;;;;;2.32;100.00;102331.81;5069506;28;20388;-71
2022/12/02 10:39:24;;;;;;;45.17;19.95;;;;;;;2.32;100.00;102323.91;5069382;28;20052;-71
2022/12/02 10:42:07;;;;;;;40.55;15.00;;;;;;;2.35;100.00;102321.91;5069194;28;20043;-71
2022/12/02 10:44:44;;;;;;;41.83;16.00;;;;;;;2.42;100.00;102331.06;5068250;28;20368;-71
2022/12/02 10:47:21;;;;;;;41.35;16.90;;;;;;;2.40;100.00;102316.31;5069435;28;20041;-70
2022/12/02 10:49:51;;;;;;;39.47;15.27;;;;;;;2.45;100.00;102323.91;5069468;28;20031;-71
2022/12/02 10:52:17;;;;;;;43.75;18.35;;;;;;;2.39;100.00;102315.47;5050123;28;20036;-71
2022/12/02 10:54:47;;;;;;;37.55;14.82;;;;;;;2.46;100.00;102323.78;5050191;28;20021;-70
2022/12/02 10:57:22;;;;;;;38.67;15.30;;;;;;;2.49;100.00;102325.34;5061974;28;20027;-71
2022/12/02 10:59:47;;;;;;;38.83;17.65;;;;;;;2.49;100.00;102318.31;5069397;28;20155;-71
2022/12/02 11:02:22;;;;;;;35.80;15.90;;;;;;;2.54;100.00;102318.84;5069493;28;20029;-71
2022/12/02 11:04:48;;;;;;;47.75;17.13;;;;;;;2.53;100.00;102309.25;5050275;28;20149;-70
2022/12/02 11:07:15;;;;;;;45.50;17.45;;;;;;;2.58;100.00;102315.03;5050068;28;20115;-71
2022/12/02 11:09:46;;;;;;;41.28;14.90;;;;;;;2.61;100.00;102306.06;5050006;28;20037;-71
2022/12/02 11:12:35;;;;;;;39.67;14.57;;;;;;;2.67;100.00;102317.97;5049920;28;20049;-71
2022/12/02 11:15:05;;;;;;;36.63;15.57;;;;;;;2.67;100.00;102310.06;5050016;28;20270;-71
2022/12/02 11:17:50;;;;;;;38.00;16.80;;;;;;;2.83;100.00;102311.50;5050046;28;20028;-71
2022/12/02 11:20:30;;;;;;;38.58;12.85;;;;;;;2.70;100.00;102318.59;5049480;28;20090;-70